createdAt,value
2018-03-10T00:00:20.200Z,1002.7
2018-03-10T00:01:00.757Z,1002.66
2018-03-10T00:01:41.318Z,1002.69
2018-03-10T00:02:21.872Z,1002.67
2018-03-10T00:03:02.421Z,1002.66
2018-03-10T00:03:42.986Z,1002.69
2018-03-10T00:04:23.748Z,1002.67
2018-03-10T00:05:04.323Z,1002.68
2018-03-10T00:05:44.889Z,1002.68
2018-03-10T00:06:25.455Z,1002.66
2018-03-10T00:07:06.026Z,1002.64
2018-03-10T00:07:46.579Z,1002.65
2018-03-10T00:08:27.147Z,1002.64
2018-03-10T00:09:07.697Z,1002.7
2018-03-10T00:09:48.292Z,1002.65
2018-03-10T00:10:28.850Z,1002.7
2018-03-10T00:11:09.415Z,1002.69
2018-03-10T00:11:49.981Z,1002.71
2018-03-10T00:12:30.528Z,1002.69
2018-03-10T00:13:11.081Z,1002.72
2018-03-10T00:13:51.638Z,1002.73
2018-03-10T00:14:32.212Z,1002.76
2018-03-10T00:15:12.763Z,1002.75
2018-03-10T00:15:53.322Z,1002.74
2018-03-10T00:16:33.878Z,1002.73
2018-03-10T00:17:14.439Z,1002.68
2018-03-10T00:17:54.992Z,1002.72
2018-03-10T00:18:35.716Z,1002.72
2018-03-10T00:19:16.278Z,1002.71
2018-03-10T00:19:56.819Z,1002.7
2018-03-10T00:20:37.381Z,1002.73
2018-03-10T00:21:17.957Z,1002.76
2018-03-10T00:21:58.507Z,1002.78
2018-03-10T00:22:39.064Z,1002.79
2018-03-10T00:23:19.657Z,1002.77
2018-03-10T00:24:00.323Z,1002.77
2018-03-10T00:24:41.061Z,1002.75
2018-03-10T00:25:21.618Z,1002.72
2018-03-10T00:26:02.544Z,1002.79
2018-03-10T00:26:43.095Z,1002.77
2018-03-10T00:27:23.657Z,1002.79
2018-03-10T00:28:04.221Z,1002.76
2018-03-10T00:28:44.780Z,1002.75
2018-03-10T00:29:25.338Z,1002.75
2018-03-10T00:30:05.899Z,1002.72
2018-03-10T00:30:46.464Z,1002.68
2018-03-10T00:31:27.016Z,1002.69
2018-03-10T00:32:07.584Z,1002.67
2018-03-10T00:32:48.181Z,1002.67
2018-03-10T00:33:28.715Z,1002.65
2018-03-10T00:34:09.283Z,1002.66
2018-03-10T00:34:49.840Z,1002.62
2018-03-10T00:35:30.400Z,1002.65
2018-03-10T00:36:10.962Z,1002.6
2018-03-10T00:36:51.544Z,1002.61
2018-03-10T00:37:32.122Z,1002.58
2018-03-10T00:38:12.667Z,1002.63
2018-03-10T00:38:53.224Z,1002.59
2018-03-10T00:39:33.796Z,1002.59
2018-03-10T00:40:14.345Z,1002.59
2018-03-10T00:40:54.908Z,1002.54
2018-03-10T00:41:35.497Z,1002.58
2018-03-10T00:42:16.089Z,1002.53
2018-03-10T00:42:56.729Z,1002.53
2018-03-10T00:43:37.296Z,1002.55
2018-03-10T00:44:17.850Z,1002.52
2018-03-10T00:44:58.429Z,1002.52
2018-03-10T00:45:38.989Z,1002.55
2018-03-10T00:46:19.574Z,1002.51
2018-03-10T00:47:00.151Z,1002.52
2018-03-10T00:47:40.706Z,1002.48
2018-03-10T00:48:21.345Z,1002.5
2018-03-10T00:49:01.901Z,1002.54
2018-03-10T00:49:42.465Z,1002.52
2018-03-10T00:50:23.039Z,1002.44
2018-03-10T00:51:03.638Z,1002.49
2018-03-10T00:51:44.255Z,1002.53
2018-03-10T00:52:24.867Z,1002.5
2018-03-10T00:53:05.563Z,1002.45
2018-03-10T00:53:46.179Z,1002.45
2018-03-10T00:54:26.875Z,1002.44
2018-03-10T00:55:07.453Z,1002.44
2018-03-10T00:55:48.026Z,1002.41
2018-03-10T00:56:28.642Z,1002.37
2018-03-10T00:57:09.212Z,1002.39
2018-03-10T00:57:49.785Z,1002.37
2018-03-10T00:58:30.334Z,1002.38
2018-03-10T00:59:10.888Z,1002.41
2018-03-10T00:59:51.440Z,1002.4
2018-03-10T01:00:32.675Z,1002.36
2018-03-10T01:01:13.290Z,1002.4
2018-03-10T01:01:53.853Z,1002.41
2018-03-10T01:02:34.432Z,1002.34
2018-03-10T01:03:14.987Z,1002.33
2018-03-10T01:03:55.620Z,1002.38
2018-03-10T01:04:36.225Z,1002.37
2018-03-10T01:05:16.774Z,1002.35
2018-03-10T01:05:57.518Z,1002.39
2018-03-10T01:08:15.556Z,1002.4
2018-03-10T01:08:56.069Z,1002.39
2018-03-10T01:09:36.624Z,1002.35
2018-03-10T01:10:17.228Z,1002.36
2018-03-10T01:10:57.834Z,1002.32
2018-03-10T01:11:38.407Z,1002.37
2018-03-10T01:12:19.109Z,1002.38
2018-03-10T01:12:59.692Z,1002.36
2018-03-10T01:13:40.247Z,1002.33
2018-03-10T01:14:20.793Z,1002.35
2018-03-10T01:15:01.351Z,1002.35
2018-03-10T01:15:41.994Z,1002.31
2018-03-10T01:16:22.488Z,1002.33
2018-03-10T01:17:03.060Z,1002.3
2018-03-10T01:17:43.659Z,1002.33
2018-03-10T01:18:24.329Z,1002.3
2018-03-10T01:19:04.872Z,1002.26
2018-03-10T01:19:45.424Z,1002.26
2018-03-10T01:20:26.007Z,1002.26
2018-03-10T01:21:06.653Z,1002.28
2018-03-10T01:21:47.144Z,1002.24
2018-03-10T01:22:27.722Z,1002.26
2018-03-10T01:23:08.272Z,1002.25
2018-03-10T01:23:48.825Z,1002.24
2018-03-10T01:24:29.390Z,1002.24
2018-03-10T01:25:10.007Z,1002.27
2018-03-10T01:25:51.219Z,1002.25
2018-03-10T01:26:31.898Z,1002.27
2018-03-10T01:27:12.592Z,1002.27
2018-03-10T01:27:53.154Z,1002.33
2018-03-10T01:28:33.696Z,1002.25
2018-03-10T01:29:14.281Z,1002.26
2018-03-10T01:29:55.023Z,1002.23
2018-03-10T01:30:35.523Z,1002.27
2018-03-10T01:31:16.165Z,1002.29
2018-03-10T01:31:56.724Z,1002.3
2018-03-10T01:32:37.354Z,1002.24
2018-03-10T01:33:17.912Z,1002.23
2018-03-10T01:33:58.464Z,1002.25
2018-03-10T01:34:39.023Z,1002.22
2018-03-10T01:35:19.819Z,1002.2
2018-03-10T01:36:00.395Z,1002.18
2018-03-10T01:36:40.957Z,1002.2
2018-03-10T01:37:21.738Z,1002.17
2018-03-10T01:38:02.343Z,1002.17
2018-03-10T01:38:42.920Z,1002.2
2018-03-10T01:39:23.467Z,1002.16
2018-03-10T01:40:04.024Z,1002.2
2018-03-10T01:40:44.616Z,1002.21
2018-03-10T01:41:25.176Z,1002.14
2018-03-10T01:42:05.720Z,1002.16
2018-03-10T01:42:46.280Z,1002.17
2018-03-10T01:43:26.844Z,1002.14
2018-03-10T01:44:07.392Z,1002.15
2018-03-10T01:44:47.945Z,1002.14
2018-03-10T01:45:28.513Z,1002.15
2018-03-10T01:46:09.077Z,1002.14
2018-03-10T01:46:49.645Z,1002.13
2018-03-10T01:47:30.238Z,1002.11
2018-03-10T01:48:10.813Z,1002.09
2018-03-10T01:48:51.376Z,1002.12
2018-03-10T01:49:31.938Z,1002.1
2018-03-10T01:50:12.577Z,1002.1
2018-03-10T01:50:53.145Z,1002.1
2018-03-10T01:51:33.720Z,1002.1
2018-03-10T01:52:14.267Z,1002.13
2018-03-10T01:52:54.873Z,1002.1
2018-03-10T01:53:35.444Z,1002.11
2018-03-10T01:54:16.012Z,1002.1
2018-03-10T01:54:56.581Z,1002.11
2018-03-10T01:55:37.130Z,1002.12
2018-03-10T01:56:17.935Z,1002.1
2018-03-10T01:56:58.758Z,1002.08
2018-03-10T01:57:39.329Z,1002.1
2018-03-10T01:58:19.906Z,1002.11
2018-03-10T01:59:00.450Z,1002.09
2018-03-10T01:59:41.019Z,1002.07
2018-03-10T02:00:21.579Z,1002.11
2018-03-10T02:01:02.146Z,1002.14
2018-03-10T02:01:42.785Z,1002.09
2018-03-10T02:02:23.336Z,1002.11
2018-03-10T02:03:03.898Z,1002.09
2018-03-10T02:03:44.454Z,1002.11
2018-03-10T02:04:25.009Z,1002.11
2018-03-10T02:05:05.579Z,1002.14
2018-03-10T02:05:46.142Z,1002.12
2018-03-10T02:06:26.708Z,1002.14
2018-03-10T02:07:07.293Z,1002.15
2018-03-10T02:07:47.846Z,1002.15
2018-03-10T02:08:28.403Z,1002.16
2018-03-10T02:09:09.037Z,1002.14
2018-03-10T02:09:49.601Z,1002.15
2018-03-10T02:10:30.148Z,1002.17
2018-03-10T02:11:10.700Z,1002.11
2018-03-10T02:11:51.258Z,1002.15
2018-03-10T02:12:31.806Z,1002.15
2018-03-10T02:13:12.382Z,1002.13
2018-03-10T02:13:52.956Z,1002.17
2018-03-10T02:14:33.545Z,1002.16
2018-03-10T02:15:14.146Z,1002.14
2018-03-10T02:15:54.695Z,1002.14
2018-03-10T02:16:35.254Z,1002.16
2018-03-10T02:17:15.802Z,1002.18
2018-03-10T02:17:56.356Z,1002.16
2018-03-10T02:18:36.904Z,1002.18
2018-03-10T02:19:17.468Z,1002.2
2018-03-10T02:19:58.027Z,1002.18
2018-03-10T02:20:38.608Z,1002.17
2018-03-10T02:21:19.162Z,1002.18
2018-03-10T02:21:59.724Z,1002.22
2018-03-10T02:22:40.275Z,1002.2
2018-03-10T02:23:20.865Z,1002.19
2018-03-10T02:24:01.758Z,1002.21
2018-03-10T02:24:42.318Z,1002.17
2018-03-10T02:25:22.871Z,1002.2
2018-03-10T02:26:03.451Z,1002.18
2018-03-10T02:26:44.011Z,1002.18
2018-03-10T02:27:24.679Z,1002.16
2018-03-10T02:28:05.231Z,1002.13
2018-03-10T02:28:45.880Z,1002.17
2018-03-10T02:29:26.498Z,1002.16
2018-03-10T02:30:07.148Z,1002.15
2018-03-10T02:30:47.668Z,1002.15
2018-03-10T02:31:28.258Z,1002.11
2018-03-10T02:32:08.982Z,1002.14
2018-03-10T02:32:49.545Z,1002.16
2018-03-10T02:33:30.094Z,1002.15
2018-03-10T02:34:10.659Z,1002.11
2018-03-10T02:34:51.206Z,1002.12
2018-03-10T02:35:31.768Z,1002.14
2018-03-10T02:36:12.339Z,1002.15
2018-03-10T02:36:52.979Z,1002.12
2018-03-10T02:37:33.582Z,1002.13
2018-03-10T02:38:14.257Z,1002.1
2018-03-10T02:38:54.909Z,1002.12
2018-03-10T02:39:35.493Z,1002.07
2018-03-10T02:40:16.048Z,1002.11
2018-03-10T02:40:56.596Z,1002.05
2018-03-10T02:41:37.148Z,1002.09
2018-03-10T02:42:17.696Z,1002.08
2018-03-10T02:42:58.267Z,1002.09
2018-03-10T02:43:38.853Z,1002.04
2018-03-10T02:44:19.492Z,1002.08
2018-03-10T02:45:00.129Z,1002.07
2018-03-10T02:45:40.851Z,1002.03
2018-03-10T02:46:21.430Z,1002.08
2018-03-10T02:47:02.000Z,1002.08
2018-03-10T02:47:42.577Z,1002.05
2018-03-10T02:48:23.141Z,1002.05
2018-03-10T02:49:03.724Z,1002.03
2018-03-10T02:49:44.283Z,1002.04
2018-03-10T02:50:24.829Z,1002.01
2018-03-10T02:51:05.404Z,1002
2018-03-10T02:51:45.966Z,1002.01
2018-03-10T02:52:26.509Z,1001.99
2018-03-10T02:53:07.082Z,1001.99
2018-03-10T02:53:47.638Z,1002.01
2018-03-10T02:54:28.212Z,1001.97
2018-03-10T02:55:08.780Z,1001.99
2018-03-10T02:55:49.340Z,1002.01
2018-03-10T02:56:29.883Z,1001.99
2018-03-10T02:57:10.455Z,1001.99
2018-03-10T02:57:51.065Z,1001.99
2018-03-10T02:58:31.624Z,1001.96
2018-03-10T02:59:12.179Z,1002.05
2018-03-10T02:59:52.745Z,1002.01
2018-03-10T03:00:33.292Z,1001.98
2018-03-10T03:01:13.884Z,1001.98
2018-03-10T03:01:54.544Z,1001.96
2018-03-10T03:02:35.327Z,1002
2018-03-10T03:03:15.889Z,1001.99
2018-03-10T03:03:56.437Z,1001.97
2018-03-10T03:04:36.987Z,1001.99
2018-03-10T03:05:17.557Z,1002.01
2018-03-10T03:05:58.295Z,1001.97
2018-03-10T03:06:38.848Z,1001.97
2018-03-10T03:07:19.407Z,1002.01
2018-03-10T03:07:59.965Z,1001.99
2018-03-10T03:08:40.515Z,1001.97
2018-03-10T03:09:21.249Z,1001.98
2018-03-10T03:10:01.819Z,1002
2018-03-10T03:10:42.372Z,1001.95
2018-03-10T03:11:22.940Z,1001.92
2018-03-10T03:12:03.496Z,1001.92
2018-03-10T03:12:44.058Z,1001.94
2018-03-10T03:13:24.623Z,1001.93
2018-03-10T03:14:05.201Z,1001.9
2018-03-10T03:14:45.824Z,1001.89
2018-03-10T03:15:26.380Z,1001.94
2018-03-10T03:16:06.930Z,1001.94
2018-03-10T03:16:47.488Z,1001.92
2018-03-10T03:17:28.054Z,1001.93
2018-03-10T03:18:08.613Z,1001.9
2018-03-10T03:18:49.183Z,1001.89
2018-03-10T03:19:29.739Z,1001.92
2018-03-10T03:20:10.303Z,1001.87
2018-03-10T03:20:50.984Z,1001.89
2018-03-10T03:21:31.533Z,1001.88
2018-03-10T03:22:12.105Z,1001.8
2018-03-10T03:22:52.669Z,1001.86
2018-03-10T03:23:33.221Z,1001.81
2018-03-10T03:24:13.769Z,1001.85
2018-03-10T03:24:54.360Z,1001.87
2018-03-10T03:25:34.928Z,1001.78
2018-03-10T03:26:15.509Z,1001.83
2018-03-10T03:26:56.071Z,1001.86
2018-03-10T03:27:36.620Z,1001.81
2018-03-10T03:28:17.173Z,1001.82
2018-03-10T03:28:57.735Z,1001.81
2018-03-10T03:29:38.296Z,1001.81
2018-03-10T03:30:18.865Z,1001.82
2018-03-10T03:30:59.441Z,1001.78
2018-03-10T03:31:39.989Z,1001.76
2018-03-10T03:32:20.600Z,1001.77
2018-03-10T03:33:01.200Z,1001.76
2018-03-10T03:33:41.761Z,1001.75
2018-03-10T03:34:22.307Z,1001.74
2018-03-10T03:35:02.928Z,1001.73
2018-03-10T03:35:43.485Z,1001.76
2018-03-10T03:36:24.066Z,1001.75
2018-03-10T03:37:04.629Z,1001.72
2018-03-10T03:37:45.190Z,1001.7
2018-03-10T03:38:25.878Z,1001.68
2018-03-10T03:39:06.487Z,1001.71
2018-03-10T03:39:47.064Z,1001.73
2018-03-10T03:40:27.613Z,1001.71
2018-03-10T03:41:08.165Z,1001.69
2018-03-10T03:41:48.711Z,1001.71
2018-03-10T03:42:29.260Z,1001.72
2018-03-10T03:43:09.839Z,1001.7
2018-03-10T03:43:50.392Z,1001.68
2018-03-10T03:44:30.974Z,1001.65
2018-03-10T03:45:11.540Z,1001.66
2018-03-10T03:45:52.100Z,1001.66
2018-03-10T03:46:32.659Z,1001.68
2018-03-10T03:47:13.241Z,1001.67
2018-03-10T03:47:53.806Z,1001.64
2018-03-10T03:48:34.355Z,1001.6
2018-03-10T03:49:14.942Z,1001.61
2018-03-10T03:49:55.538Z,1001.62
2018-03-10T03:50:36.080Z,1001.59
2018-03-10T03:51:16.623Z,1001.57
2018-03-10T03:51:57.174Z,1001.62
2018-03-10T03:52:37.724Z,1001.6
2018-03-10T03:53:18.309Z,1001.62
2018-03-10T03:53:58.859Z,1001.62
2018-03-10T03:54:39.415Z,1001.59
2018-03-10T03:55:19.970Z,1001.59
2018-03-10T03:56:00.535Z,1001.56
2018-03-10T03:56:41.097Z,1001.6
2018-03-10T03:57:21.653Z,1001.59
2018-03-10T03:58:02.321Z,1001.63
2018-03-10T03:58:42.895Z,1001.64
2018-03-10T03:59:23.483Z,1001.55
2018-03-10T04:00:04.037Z,1001.61
2018-03-10T04:00:44.590Z,1001.62
2018-03-10T04:01:25.152Z,1001.61
2018-03-10T04:02:05.720Z,1001.61
2018-03-10T04:02:46.275Z,1001.59
2018-03-10T04:03:26.821Z,1001.58
2018-03-10T04:04:07.411Z,1001.54
2018-03-10T04:04:47.967Z,1001.54
2018-03-10T04:05:28.533Z,1001.54
2018-03-10T04:06:09.113Z,1001.58
2018-03-10T04:06:49.674Z,1001.58
2018-03-10T04:07:30.230Z,1001.6
2018-03-10T04:08:10.779Z,1001.59
2018-03-10T04:08:51.342Z,1001.53
2018-03-10T04:09:31.899Z,1001.54
2018-03-10T04:10:12.462Z,1001.59
2018-03-10T04:10:53.030Z,1001.55
2018-03-10T04:11:33.620Z,1001.52
2018-03-10T04:12:14.188Z,1001.52
2018-03-10T04:12:54.752Z,1001.49
2018-03-10T04:13:35.305Z,1001.47
2018-03-10T04:14:15.852Z,1001.51
2018-03-10T04:14:56.415Z,1001.5
2018-03-10T04:15:37.160Z,1001.48
2018-03-10T04:16:17.712Z,1001.49
2018-03-10T04:16:58.286Z,1001.48
2018-03-10T04:17:38.839Z,1001.46
2018-03-10T04:18:19.416Z,1001.44
2018-03-10T04:18:59.974Z,1001.47
2018-03-10T04:19:40.534Z,1001.43
2018-03-10T04:20:21.105Z,1001.46
2018-03-10T04:21:01.668Z,1001.38
2018-03-10T04:21:42.278Z,1001.42
2018-03-10T04:22:22.799Z,1001.4
2018-03-10T04:23:03.381Z,1001.42
2018-03-10T04:23:43.941Z,1001.37
2018-03-10T04:24:24.516Z,1001.34
2018-03-10T04:25:05.229Z,1001.33
2018-03-10T04:25:45.845Z,1001.3
2018-03-10T04:26:26.410Z,1001.31
2018-03-10T04:27:06.973Z,1001.27
2018-03-10T04:27:47.605Z,1001.23
2018-03-10T04:28:28.183Z,1001.2
2018-03-10T04:29:08.745Z,1001.2
2018-03-10T04:29:49.304Z,1001.25
2018-03-10T04:30:29.870Z,1001.18
2018-03-10T04:31:10.439Z,1001.17
2018-03-10T04:31:50.999Z,1001.16
2018-03-10T04:32:31.593Z,1001.19
2018-03-10T04:33:12.290Z,1001.15
2018-03-10T04:33:52.868Z,1001.14
2018-03-10T04:34:33.419Z,1001.1
2018-03-10T04:35:13.973Z,1001.11
2018-03-10T04:35:54.548Z,1001.13
2018-03-10T04:36:35.072Z,1001.11
2018-03-10T04:37:15.631Z,1001.08
2018-03-10T04:37:56.239Z,1001.06
2018-03-10T04:38:36.834Z,1001.09
2018-03-10T04:39:17.382Z,1001.14
2018-03-10T04:39:57.964Z,1001.07
2018-03-10T04:40:38.524Z,1001.12
2018-03-10T04:41:19.086Z,1001.09
2018-03-10T04:41:59.647Z,1001.11
2018-03-10T04:42:40.210Z,1001.09
2018-03-10T04:43:20.769Z,1001.11
2018-03-10T04:44:01.342Z,1001.08
2018-03-10T04:44:41.902Z,1001.06
2018-03-10T04:45:22.637Z,1001.09
2018-03-10T04:46:03.245Z,1001.13
2018-03-10T04:46:43.857Z,1001.07
2018-03-10T04:47:24.398Z,1001.06
2018-03-10T04:48:05.004Z,1001.09
2018-03-10T04:48:45.569Z,1001.12
2018-03-10T04:49:26.144Z,1001.09
2018-03-10T04:50:06.706Z,1001.03
2018-03-10T04:50:47.266Z,1001.07
2018-03-10T04:51:27.857Z,1001.05
2018-03-10T04:52:08.396Z,1001
2018-03-10T04:52:48.959Z,1001.02
2018-03-10T04:53:29.522Z,1001.02
2018-03-10T04:54:10.083Z,1000.99
2018-03-10T04:54:50.638Z,1001.03
2018-03-10T04:55:31.205Z,1001.01
2018-03-10T04:56:11.779Z,1000.96
2018-03-10T04:56:52.360Z,1001.02
2018-03-10T04:57:32.912Z,1001.02
2018-03-10T04:58:13.492Z,1001
2018-03-10T04:58:54.073Z,1000.98
2018-03-10T04:59:34.620Z,1000.99
2018-03-10T05:00:15.171Z,1001
2018-03-10T05:00:55.757Z,1001
2018-03-10T05:01:36.310Z,1001
2018-03-10T05:02:16.865Z,1000.97
2018-03-10T05:02:57.435Z,1000.95
2018-03-10T05:03:37.998Z,1000.98
2018-03-10T05:04:18.543Z,1000.97
2018-03-10T05:04:59.132Z,1000.97
2018-03-10T05:05:39.720Z,1000.95
2018-03-10T05:06:20.277Z,1000.96
2018-03-10T05:07:00.840Z,1000.97
2018-03-10T05:07:41.420Z,1000.96
2018-03-10T05:08:21.976Z,1000.98
2018-03-10T05:09:02.539Z,1000.96
2018-03-10T05:09:43.151Z,1000.94
2018-03-10T05:10:23.713Z,1000.96
2018-03-10T05:11:04.273Z,1000.95
2018-03-10T05:11:44.835Z,1000.98
2018-03-10T05:12:25.393Z,1000.96
2018-03-10T05:13:05.941Z,1000.97
2018-03-10T05:13:46.490Z,1000.9
2018-03-10T05:14:27.051Z,1000.97
2018-03-10T05:15:07.597Z,1000.93
2018-03-10T05:15:48.143Z,1000.91
2018-03-10T05:16:28.702Z,1000.95
2018-03-10T05:17:09.244Z,1000.96
2018-03-10T05:17:49.815Z,1000.96
2018-03-10T05:18:30.378Z,1000.97
2018-03-10T05:19:10.929Z,1000.97
2018-03-10T05:19:51.497Z,1000.92
2018-03-10T05:20:32.071Z,1000.98
2018-03-10T05:21:12.622Z,1000.95
2018-03-10T05:21:53.186Z,1000.96
2018-03-10T05:22:33.750Z,1000.91
2018-03-10T05:23:14.304Z,1000.95
2018-03-10T05:23:54.850Z,1000.93
2018-03-10T05:24:35.399Z,1000.9
2018-03-10T05:25:15.952Z,1000.92
2018-03-10T05:25:56.541Z,1000.91
2018-03-10T05:26:37.101Z,1000.88
2018-03-10T05:27:17.690Z,1000.9
2018-03-10T05:27:58.215Z,1000.93
2018-03-10T05:28:38.776Z,1000.91
2018-03-10T05:29:19.336Z,1000.91
2018-03-10T05:29:59.885Z,1000.89
2018-03-10T05:30:40.465Z,1000.9
2018-03-10T05:31:21.067Z,1000.88
2018-03-10T05:32:01.948Z,1000.84
2018-03-10T05:32:42.835Z,1000.81
2018-03-10T05:33:23.590Z,1000.81
2018-03-10T05:34:04.432Z,1000.76
2018-03-10T05:34:45.266Z,1000.8
2018-03-10T05:35:26.360Z,1000.8
2018-03-10T05:36:07.132Z,1000.76
2018-03-10T05:36:48.569Z,1000.77
2018-03-10T05:37:29.310Z,1000.82
2018-03-10T05:38:10.047Z,1000.76
2018-03-10T05:38:50.776Z,1000.77
2018-03-10T05:39:31.657Z,1000.76
2018-03-10T05:40:12.559Z,1000.78
2018-03-10T05:40:53.651Z,1000.79
2018-03-10T05:41:34.396Z,1000.8
2018-03-10T05:42:15.012Z,1000.78
2018-03-10T05:42:55.583Z,1000.75
2018-03-10T05:43:36.332Z,1000.76
2018-03-10T05:44:16.906Z,1000.8
2018-03-10T05:44:57.461Z,1000.73
2018-03-10T05:45:38.013Z,1000.75
2018-03-10T05:46:18.766Z,1000.75
2018-03-10T05:46:59.324Z,1000.75
2018-03-10T05:48:57.178Z,1000.75
2018-03-10T05:49:37.728Z,1000.73
2018-03-10T05:50:18.287Z,1000.8
2018-03-10T05:50:58.835Z,1000.72
2018-03-10T05:51:39.384Z,1000.73
2018-03-10T05:52:19.949Z,1000.72
2018-03-10T05:53:00.609Z,1000.69
2018-03-10T05:53:41.159Z,1000.75
2018-03-10T05:55:38.808Z,1000.68
2018-03-10T05:56:19.655Z,1000.69
2018-03-10T05:57:00.240Z,1000.71
2018-03-10T05:57:40.831Z,1000.69
2018-03-10T05:58:21.443Z,1000.68
2018-03-10T05:59:02.002Z,1000.68
2018-03-10T05:59:42.663Z,1000.68
2018-03-10T06:00:23.249Z,1000.67
2018-03-10T06:01:03.970Z,1000.67
2018-03-10T06:01:44.476Z,1000.67
2018-03-10T06:02:25.023Z,1000.7
2018-03-10T06:03:05.581Z,1000.65
2018-03-10T06:03:46.170Z,1000.69
2018-03-10T06:04:26.739Z,1000.7
2018-03-10T06:05:07.295Z,1000.71
2018-03-10T06:05:47.905Z,1000.69
2018-03-10T06:06:28.486Z,1000.68
2018-03-10T06:07:09.310Z,1000.7
2018-03-10T06:07:50.768Z,1000.71
2018-03-10T06:08:31.556Z,1000.7
2018-03-10T06:09:12.157Z,1000.71
2018-03-10T06:09:52.744Z,1000.66
2018-03-10T06:10:33.298Z,1000.65
2018-03-10T06:11:13.854Z,1000.69
2018-03-10T06:11:54.419Z,1000.67
2018-03-10T06:12:34.980Z,1000.69
2018-03-10T06:13:15.604Z,1000.67
2018-03-10T06:13:56.199Z,1000.7
2018-03-10T06:14:36.764Z,1000.71
2018-03-10T06:15:17.317Z,1000.71
2018-03-10T06:15:57.868Z,1000.69
2018-03-10T06:16:38.454Z,1000.68
2018-03-10T06:17:18.973Z,1000.7
2018-03-10T06:17:59.523Z,1000.7
2018-03-10T06:18:40.073Z,1000.65
2018-03-10T06:19:20.628Z,1000.73
2018-03-10T06:20:01.194Z,1000.68
2018-03-10T06:20:41.746Z,1000.69
2018-03-10T06:21:22.303Z,1000.67
2018-03-10T06:22:02.865Z,1000.69
2018-03-10T06:22:43.455Z,1000.71
2018-03-10T06:23:24.018Z,1000.7
2018-03-10T06:24:04.582Z,1000.69
2018-03-10T06:24:45.123Z,1000.71
2018-03-10T06:25:25.683Z,1000.73
2018-03-10T06:26:06.284Z,1000.73
2018-03-10T06:26:46.842Z,1000.7
2018-03-10T06:27:27.428Z,1000.7
2018-03-10T06:28:07.984Z,1000.72
2018-03-10T06:28:48.547Z,1000.68
2018-03-10T06:29:29.117Z,1000.7
2018-03-10T06:30:09.695Z,1000.71
2018-03-10T06:30:50.255Z,1000.73
2018-03-10T06:31:30.851Z,1000.69
2018-03-10T06:32:11.413Z,1000.68
2018-03-10T06:32:51.969Z,1000.68
2018-03-10T06:33:32.520Z,1000.72
2018-03-10T06:34:13.115Z,1000.71
2018-03-10T06:34:53.672Z,1000.74
2018-03-10T06:35:34.260Z,1000.72
2018-03-10T06:36:14.799Z,1000.7
2018-03-10T06:36:55.369Z,1000.72
2018-03-10T06:37:35.913Z,1000.69
2018-03-10T06:38:16.475Z,1000.66
2018-03-10T06:38:57.018Z,1000.71
2018-03-10T06:39:37.565Z,1000.68
2018-03-10T06:40:18.125Z,1000.68
2018-03-10T06:40:58.676Z,1000.76
2018-03-10T06:41:39.242Z,1000.62
2018-03-10T06:42:19.806Z,1000.71
2018-03-10T06:43:00.360Z,1000.72
2018-03-10T06:43:40.937Z,1000.71
2018-03-10T06:44:21.501Z,1000.68
2018-03-10T06:45:02.088Z,1000.66
2018-03-10T06:45:42.604Z,1000.69
2018-03-10T06:46:23.150Z,1000.66
2018-03-10T06:47:03.840Z,1000.67
2018-03-10T06:47:44.345Z,1000.68
2018-03-10T06:48:24.905Z,1000.69
2018-03-10T06:49:05.465Z,1000.7
2018-03-10T06:49:46.028Z,1000.73
2018-03-10T06:50:26.587Z,1000.71
2018-03-10T06:51:07.147Z,1000.69
2018-03-10T06:51:47.727Z,1000.71
2018-03-10T06:52:28.295Z,1000.68
2018-03-10T06:53:08.848Z,1000.67
2018-03-10T06:53:49.399Z,1000.66
2018-03-10T06:54:29.963Z,1000.7
2018-03-10T06:55:10.508Z,1000.66
2018-03-10T06:55:51.085Z,1000.67
2018-03-10T06:56:31.634Z,1000.66
2018-03-10T06:57:12.220Z,1000.68
2018-03-10T06:57:52.782Z,1000.69
2018-03-10T06:58:33.361Z,1000.69
2018-03-10T06:59:13.916Z,1000.72
2018-03-10T06:59:54.477Z,1000.7
2018-03-10T07:00:35.025Z,1000.71
2018-03-10T07:01:15.592Z,1000.72
2018-03-10T07:01:56.132Z,1000.71
2018-03-10T07:02:36.676Z,1000.72
2018-03-10T07:03:17.298Z,1000.69
2018-03-10T07:03:57.866Z,1000.72
2018-03-10T07:04:38.424Z,1000.7
2018-03-10T07:05:18.968Z,1000.69
2018-03-10T07:05:59.515Z,1000.73
2018-03-10T07:06:40.082Z,1000.71
2018-03-10T07:07:20.647Z,1000.75
2018-03-10T07:08:01.214Z,1000.7
2018-03-10T07:08:41.774Z,1000.75
2018-03-10T07:09:22.337Z,1000.75
2018-03-10T07:10:02.894Z,1000.73
2018-03-10T07:10:43.471Z,1000.7
2018-03-10T07:11:24.034Z,1000.67
2018-03-10T07:12:04.572Z,1000.69
2018-03-10T07:12:45.127Z,1000.65
2018-03-10T07:13:25.693Z,1000.69
2018-03-10T07:14:06.248Z,1000.66
2018-03-10T07:14:46.840Z,1000.69
2018-03-10T07:15:27.368Z,1000.65
2018-03-10T07:16:07.929Z,1000.7
2018-03-10T07:16:48.493Z,1000.66
2018-03-10T07:17:29.049Z,1000.68
2018-03-10T07:18:09.600Z,1000.65
2018-03-10T07:18:50.161Z,1000.69
2018-03-10T07:19:30.711Z,1000.69
2018-03-10T07:20:11.311Z,1000.65
2018-03-10T07:20:51.838Z,1000.72
2018-03-10T07:21:32.475Z,1000.69
2018-03-10T07:22:13.040Z,1000.73
2018-03-10T07:22:53.585Z,1000.68
2018-03-10T07:23:34.207Z,1000.66
2018-03-10T07:24:14.685Z,1000.69
2018-03-10T07:24:55.232Z,1000.66
2018-03-10T07:25:35.840Z,1000.68
2018-03-10T07:26:16.357Z,1000.68
2018-03-10T07:26:56.914Z,1000.66
2018-03-10T07:27:37.534Z,1000.66
2018-03-10T07:28:18.085Z,1000.65
2018-03-10T07:28:58.647Z,1000.68
2018-03-10T07:29:39.197Z,1000.64
2018-03-10T07:30:19.750Z,1000.65
2018-03-10T07:31:00.355Z,1000.69
2018-03-10T07:31:40.902Z,1000.7
2018-03-10T07:32:21.534Z,1000.7
2018-03-10T07:33:02.521Z,1000.75
2018-03-10T07:33:43.097Z,1000.7
2018-03-10T07:34:23.702Z,1000.7
2018-03-10T07:35:04.262Z,1000.71
2018-03-10T07:35:44.830Z,1000.73
2018-03-10T07:36:25.371Z,1000.73
2018-03-10T07:37:05.961Z,1000.7
2018-03-10T07:37:46.509Z,1000.74
2018-03-10T07:38:27.074Z,1000.73
2018-03-10T07:39:07.632Z,1000.73
2018-03-10T07:39:48.177Z,1000.71
2018-03-10T07:40:28.757Z,1000.72
2018-03-10T07:41:09.322Z,1000.72
2018-03-10T07:41:49.880Z,1000.72
2018-03-10T07:42:30.447Z,1000.73
2018-03-10T07:43:11.027Z,1000.73
2018-03-10T07:43:51.551Z,1000.7
2018-03-10T07:44:32.102Z,1000.74
2018-03-10T07:45:12.666Z,1000.69
2018-03-10T07:45:53.213Z,1000.73
2018-03-10T07:46:33.907Z,1000.76
2018-03-10T07:47:14.462Z,1000.68
2018-03-10T07:47:55.060Z,1000.67
2018-03-10T07:48:35.613Z,1000.68
2018-03-10T07:49:16.213Z,1000.67
2018-03-10T07:49:56.773Z,1000.69
2018-03-10T07:50:37.407Z,1000.68
2018-03-10T07:51:17.966Z,1000.63
2018-03-10T07:51:58.603Z,1000.65
2018-03-10T07:52:39.152Z,1000.65
2018-03-10T07:53:19.715Z,1000.67
2018-03-10T07:54:00.267Z,1000.64
2018-03-10T07:54:40.838Z,1000.65
2018-03-10T07:55:21.410Z,1000.6
2018-03-10T07:56:01.969Z,1000.57
2018-03-10T07:56:42.528Z,1000.62
2018-03-10T07:57:23.081Z,1000.59
2018-03-10T07:58:03.635Z,1000.58
2018-03-10T07:58:44.220Z,1000.56
2018-03-10T07:59:24.804Z,1000.57
2018-03-10T08:00:05.408Z,1000.59
2018-03-10T08:00:45.930Z,1000.58
2018-03-10T08:01:26.489Z,1000.6
2018-03-10T08:02:07.051Z,1000.59
2018-03-10T08:02:47.603Z,1000.55
2018-03-10T08:03:28.150Z,1000.54
2018-03-10T08:04:08.882Z,1000.5
2018-03-10T08:04:49.440Z,1000.51
2018-03-10T08:05:29.993Z,1000.48
2018-03-10T08:06:10.548Z,1000.5
2018-03-10T08:06:51.114Z,1000.49
2018-03-10T08:07:31.715Z,1000.49
2018-03-10T08:08:12.269Z,1000.52
2018-03-10T08:08:52.852Z,1000.5
2018-03-10T08:09:33.409Z,1000.52
2018-03-10T08:10:13.986Z,1000.54
2018-03-10T08:10:54.537Z,1000.56
2018-03-10T08:11:35.088Z,1000.56
2018-03-10T08:12:15.655Z,1000.53
2018-03-10T08:12:56.217Z,1000.55
2018-03-10T08:15:08.987Z,1000.54
2018-03-10T08:15:49.539Z,1000.58
2018-03-10T08:16:30.146Z,1000.49
2018-03-10T08:17:11.005Z,1000.55
2018-03-10T08:17:51.690Z,1000.57
2018-03-10T08:18:32.291Z,1000.55
2018-03-10T08:19:13.010Z,1000.54